createdAt,value
2017-05-31T00:02:12.268Z,101447.83
2017-05-31T00:04:39.800Z,101453.67
2017-05-31T00:07:07.318Z,101452.23
2017-05-31T00:09:34.863Z,101443.02
2017-05-31T00:12:02.383Z,101449.38
2017-05-31T00:14:29.939Z,101449.36
2017-05-31T00:16:57.481Z,101448.99
2017-05-31T00:19:25.042Z,101450.01
2017-05-31T00:21:52.601Z,101448.81
2017-05-31T00:24:20.137Z,101451.18
2017-05-31T00:26:47.684Z,101451.75
2017-05-31T00:29:15.220Z,101451.59
2017-05-31T00:31:42.802Z,101458.02
2017-05-31T00:34:10.329Z,101461.52
2017-05-31T00:36:37.916Z,101458.42
2017-05-31T00:39:05.526Z,101467.09
2017-05-31T00:41:33.122Z,101473.19
2017-05-31T00:44:00.652Z,101479.18
2017-05-31T00:46:28.255Z,101477.02
2017-05-31T00:48:55.862Z,101482.23
2017-05-31T00:51:23.508Z,101479.52
2017-05-31T00:53:51.032Z,101483.15
2017-05-31T00:56:18.567Z,101490.87
2017-05-31T00:58:46.130Z,101486.84
2017-05-31T01:01:13.679Z,101493.61
2017-05-31T01:03:41.214Z,101494.55
2017-05-31T01:06:08.771Z,101498.52
2017-05-31T01:08:36.396Z,101497.50
2017-05-31T01:11:03.972Z,101502.14
2017-05-31T01:13:31.571Z,101494.67
2017-05-31T01:15:59.047Z,101496.19
2017-05-31T01:18:26.592Z,101505.49
2017-05-31T01:20:54.108Z,101499.70
2017-05-31T01:23:21.689Z,101501.27
2017-05-31T01:25:49.207Z,101494.33
2017-05-31T01:28:16.731Z,101498.33
2017-05-31T01:30:44.291Z,101493.24
2017-05-31T01:33:11.807Z,101495.66
2017-05-31T01:35:39.704Z,101495.41
2017-05-31T01:38:07.219Z,101494.09
2017-05-31T01:40:34.757Z,101501.94
2017-05-31T01:43:02.308Z,101496.86
2017-05-31T01:45:29.823Z,101498.66
2017-05-31T01:47:57.372Z,101501.37
2017-05-31T01:50:24.895Z,101505.41
2017-05-31T01:52:52.405Z,101503.88
2017-05-31T01:55:19.938Z,101507.07
2017-05-31T01:57:47.460Z,101505.98
2017-05-31T02:00:15.000Z,101505.42
2017-05-31T02:02:42.637Z,101511.64
2017-05-31T02:05:10.204Z,101512.23
2017-05-31T02:07:37.804Z,101512.49
2017-05-31T02:10:05.392Z,101517.06
2017-05-31T02:12:32.988Z,101512.06
2017-05-31T02:15:00.519Z,101512.64
2017-05-31T02:17:28.088Z,101512.75
2017-05-31T02:19:55.600Z,101516.33
2017-05-31T02:22:23.173Z,101519.23
2017-05-31T02:24:50.691Z,101515.52
2017-05-31T02:27:18.359Z,101512.35
2017-05-31T02:29:45.912Z,101509.33
2017-05-31T02:32:13.479Z,101514.66
2017-05-31T02:34:41.040Z,101510.77
2017-05-31T02:37:08.636Z,101508.69
2017-05-31T02:39:36.155Z,101506.86
2017-05-31T02:42:03.707Z,101514.50
2017-05-31T02:44:31.242Z,101509.58
2017-05-31T02:46:58.849Z,101517.51
2017-05-31T02:49:26.472Z,101520.77
2017-05-31T02:51:54.135Z,101515.37
2017-05-31T02:54:21.658Z,101517.52
2017-05-31T02:56:49.243Z,101517.98
2017-05-31T02:59:16.866Z,101520.48
2017-05-31T03:01:44.402Z,101517.20
2017-05-31T03:04:12.022Z,101518.59
2017-05-31T03:06:39.591Z,101517.63
2017-05-31T03:09:07.248Z,101523.47
2017-05-31T03:11:34.811Z,101523.99
2017-05-31T03:14:02.416Z,101520.21
2017-05-31T03:16:29.932Z,101527.25
2017-05-31T03:18:57.459Z,101523.17
2017-05-31T03:21:25.036Z,101530.77
2017-05-31T03:23:52.619Z,101524.63
2017-05-31T03:26:20.268Z,101530.00
2017-05-31T03:28:47.791Z,101534.63
2017-05-31T03:31:15.323Z,101534.03
2017-05-31T03:33:42.927Z,101539.98
2017-05-31T03:36:10.454Z,101538.69
2017-05-31T03:38:38.055Z,101540.91
2017-05-31T03:41:05.571Z,101540.71
2017-05-31T03:43:33.099Z,101540.92
2017-05-31T03:46:00.632Z,101546.33
2017-05-31T03:48:28.141Z,101548.61
2017-05-31T03:50:55.693Z,101554.48
2017-05-31T03:53:23.220Z,101548.20
2017-05-31T03:55:51.099Z,101559.09
2017-05-31T03:58:18.723Z,101555.77
2017-05-31T04:00:46.248Z,101561.68
2017-05-31T04:03:13.846Z,101562.53
2017-05-31T04:05:41.436Z,101570.42
2017-05-31T04:08:08.999Z,101565.92
2017-05-31T04:10:36.526Z,101576.52
2017-05-31T04:13:04.040Z,101571.34
2017-05-31T04:15:31.624Z,101578.34
2017-05-31T04:17:59.160Z,101581.31
2017-05-31T04:20:26.800Z,101581.73
2017-05-31T04:22:54.331Z,101583.38
2017-05-31T04:25:21.848Z,101584.05
2017-05-31T04:27:49.424Z,101594.33
2017-05-31T04:30:16.959Z,101596.19
2017-05-31T04:32:44.861Z,101596.89
2017-05-31T04:35:12.395Z,101593.84
2017-05-31T04:37:39.963Z,101595.75
2017-05-31T04:40:07.515Z,101598.97
2017-05-31T04:42:35.076Z,101601.09
2017-05-31T04:45:02.692Z,101600.45
2017-05-31T04:47:30.228Z,101607.56
2017-05-31T04:49:57.775Z,101600.53
2017-05-31T04:52:25.387Z,101607.08
2017-05-31T04:54:52.936Z,101606.36
2017-05-31T04:57:20.532Z,101606.36
2017-05-31T04:59:48.067Z,101607.42
2017-05-31T05:02:15.636Z,101609.44
2017-05-31T05:04:43.167Z,101611.22
2017-05-31T05:07:10.708Z,101611.75
2017-05-31T05:09:38.368Z,101614.81
2017-05-31T05:12:05.928Z,101615.23
2017-05-31T05:14:33.517Z,101617.13
2017-05-31T05:17:01.035Z,101621.91
2017-05-31T05:19:28.614Z,101625.83
2017-05-31T05:21:56.141Z,101628.14
2017-05-31T05:24:23.934Z,101626.70
2017-05-31T05:26:51.500Z,101627.50
2017-05-31T05:29:19.032Z,101624.69
2017-05-31T05:31:46.587Z,101628.81
2017-05-31T05:34:14.132Z,101629.39
2017-05-31T05:36:41.707Z,101631.44
2017-05-31T05:39:09.268Z,101639.14
2017-05-31T05:41:36.880Z,101646.86
2017-05-31T05:44:04.391Z,101647.20
2017-05-31T05:46:31.936Z,101649.66
2017-05-31T05:48:59.516Z,101652.09
2017-05-31T05:51:27.063Z,101651.39
2017-05-31T05:53:54.635Z,101646.63
2017-05-31T05:56:22.164Z,101652.62
2017-05-31T05:58:49.793Z,101649.39
2017-05-31T06:01:17.317Z,101657.63
2017-05-31T06:03:44.856Z,101660.48
2017-05-31T06:06:12.419Z,101665.34
2017-05-31T06:08:39.939Z,101660.95
2017-05-31T06:11:07.619Z,101661.13
2017-05-31T06:13:37.213Z,101663.47
2017-05-31T06:16:04.967Z,101672.19
2017-05-31T06:18:32.524Z,101674.39
2017-05-31T06:21:00.051Z,101671.16
2017-05-31T06:23:27.678Z,101678.75
2017-05-31T06:25:55.215Z,101684.47
2017-05-31T06:28:22.783Z,101682.34
2017-05-31T06:30:50.319Z,101687.70
2017-05-31T06:33:17.954Z,101689.88
2017-05-31T06:35:45.587Z,101685.97
2017-05-31T06:38:13.140Z,101695.88
2017-05-31T06:40:40.738Z,101693.76
2017-05-31T06:43:08.316Z,101706.30
2017-05-31T06:45:36.180Z,101703.84
2017-05-31T06:48:03.711Z,101703.58
2017-05-31T06:50:31.251Z,101714.08
2017-05-31T06:52:58.848Z,101713.36
2017-05-31T06:55:26.379Z,101710.53
2017-05-31T06:57:53.968Z,101718.73
2017-05-31T07:00:21.559Z,101723.08
2017-05-31T07:02:49.127Z,101723.27
2017-05-31T07:05:16.640Z,101730.95
2017-05-31T07:07:44.160Z,101729.73
2017-05-31T07:10:11.781Z,101731.38
2017-05-31T07:12:39.377Z,101727.97
2017-05-31T07:15:06.971Z,101728.58
2017-05-31T07:17:34.549Z,101720.64
2017-05-31T07:20:02.084Z,101728.39
2017-05-31T07:22:29.727Z,101722.59
2017-05-31T07:24:57.289Z,101734.03
2017-05-31T07:27:24.907Z,101738.07
2017-05-31T07:29:52.423Z,101738.63
2017-05-31T07:32:19.956Z,101734.40
2017-05-31T07:34:47.528Z,101740.30
2017-05-31T07:37:15.047Z,101731.22
2017-05-31T07:39:42.637Z,101736.39
2017-05-31T07:42:10.173Z,101735.52
2017-05-31T07:44:37.711Z,101738.92
2017-05-31T07:47:05.240Z,101743.30
2017-05-31T07:49:32.797Z,101739.77
2017-05-31T07:52:00.335Z,101740.89
2017-05-31T07:54:27.924Z,101746.58
2017-05-31T07:56:55.439Z,101751.25
2017-05-31T07:59:23.028Z,101747.09
2017-05-31T08:01:50.568Z,101752.53
2017-05-31T08:04:18.101Z,101747.99
2017-05-31T08:06:45.659Z,101749.69
2017-05-31T08:09:13.176Z,101752.40
2017-05-31T08:11:40.719Z,101748.23
2017-05-31T08:14:08.261Z,101748.59
2017-05-31T08:16:35.836Z,101754.57
2017-05-31T08:19:03.368Z,101754.53
2017-05-31T08:21:30.922Z,101754.62
2017-05-31T08:23:58.491Z,101750.34
2017-05-31T08:26:26.020Z,101752.73
2017-05-31T08:28:53.577Z,101754.73
2017-05-31T08:31:21.091Z,101761.20
2017-05-31T08:33:48.651Z,101759.14
2017-05-31T08:36:16.191Z,101755.03
2017-05-31T08:38:43.781Z,101752.67
2017-05-31T08:41:11.308Z,101763.24
2017-05-31T08:43:38.831Z,101759.13
2017-05-31T08:46:06.425Z,101759.79
2017-05-31T08:48:33.939Z,101759.69
2017-05-31T08:51:01.524Z,101757.81
2017-05-31T08:53:29.048Z,101753.97
2017-05-31T08:55:56.608Z,101763.95
2017-05-31T08:58:24.136Z,101759.08
2017-05-31T09:00:51.728Z,101754.63
2017-05-31T09:03:19.243Z,101752.91
2017-05-31T09:05:46.774Z,101751.13
2017-05-31T09:08:14.772Z,101746.07
2017-05-31T09:10:42.292Z,101745.57
2017-05-31T09:13:09.938Z,101746.93
2017-05-31T09:15:37.468Z,101749.15
2017-05-31T09:18:05.039Z,101747.67
2017-05-31T09:20:32.601Z,101742.92
2017-05-31T09:23:00.147Z,101745.56
2017-05-31T09:25:27.683Z,101748.70
2017-05-31T09:27:55.256Z,101747.41
2017-05-31T09:30:22.774Z,101747.70
2017-05-31T09:32:50.313Z,101741.59
2017-05-31T09:35:17.907Z,101748.52
2017-05-31T09:37:45.427Z,101749.05
2017-05-31T09:40:12.999Z,101747.49
2017-05-31T09:42:40.513Z,101748.92
2017-05-31T09:45:08.037Z,101743.03
2017-05-31T09:47:35.612Z,101739.00
2017-05-31T09:50:03.120Z,101742.94
2017-05-31T09:52:30.645Z,101734.29
2017-05-31T09:54:58.192Z,101737.14
2017-05-31T09:57:25.719Z,101740.89
2017-05-31T09:59:53.267Z,101745.75
2017-05-31T10:02:20.859Z,101743.26
2017-05-31T10:04:48.439Z,101740.92
2017-05-31T10:07:16.075Z,101743.58
2017-05-31T10:09:43.649Z,101739.54
2017-05-31T10:12:11.178Z,101733.70
2017-05-31T10:14:38.720Z,101743.88
2017-05-31T10:17:06.279Z,101746.40
2017-05-31T10:19:33.831Z,101747.17
2017-05-31T10:22:01.384Z,101738.01
2017-05-31T10:24:28.903Z,101737.36
2017-05-31T10:26:56.482Z,101739.09
2017-05-31T10:29:24.116Z,101746.17
2017-05-31T10:31:51.652Z,101738.69
2017-05-31T10:34:19.259Z,101753.66
2017-05-31T10:36:46.872Z,101745.45
2017-05-31T10:39:14.487Z,101747.67
2017-05-31T10:41:42.029Z,101744.67
2017-05-31T10:44:09.619Z,101738.72
2017-05-31T10:46:37.240Z,101742.05
2017-05-31T10:49:04.764Z,101743.55
2017-05-31T10:51:32.342Z,101754.20
2017-05-31T10:53:59.888Z,101752.31
2017-05-31T10:56:27.419Z,101743.30
2017-05-31T10:58:55.039Z,101748.55
2017-05-31T11:01:22.571Z,101749.16
2017-05-31T11:03:50.167Z,101746.80
2017-05-31T11:06:17.694Z,101749.75
2017-05-31T11:08:45.273Z,101743.88
2017-05-31T11:11:12.830Z,101738.27
2017-05-31T11:13:40.366Z,101742.77
2017-05-31T11:16:07.919Z,101735.85
2017-05-31T11:18:35.516Z,101739.84
2017-05-31T11:21:03.085Z,101735.16
2017-05-31T11:23:30.615Z,101732.19
2017-05-31T11:25:58.140Z,101733.70
2017-05-31T11:28:25.704Z,101736.50
2017-05-31T11:30:53.222Z,101731.76
2017-05-31T11:33:20.803Z,101729.43
2017-05-31T11:35:48.328Z,101732.72
2017-05-31T11:38:15.874Z,101731.18
2017-05-31T11:40:43.431Z,101729.28
2017-05-31T11:43:10.976Z,101727.98
2017-05-31T11:45:38.524Z,101724.27
2017-05-31T11:48:06.040Z,101719.79
2017-05-31T11:50:33.630Z,101722.98
2017-05-31T11:53:01.156Z,101718.69
2017-05-31T11:55:28.691Z,101718.50
2017-05-31T11:57:56.260Z,101719.89
2017-05-31T12:00:23.872Z,101714.95
2017-05-31T12:02:51.416Z,101704.28
2017-05-31T12:05:18.930Z,101711.59
2017-05-31T12:07:46.631Z,101700.22
2017-05-31T12:10:14.268Z,101706.42
2017-05-31T12:12:41.825Z,101701.28
2017-05-31T12:15:09.411Z,101702.62
2017-05-31T12:17:36.943Z,101703.14
2017-05-31T12:20:04.564Z,101703.11
2017-05-31T12:22:32.088Z,101705.36
2017-05-31T12:24:59.763Z,101699.59
2017-05-31T12:27:27.289Z,101703.44
2017-05-31T12:29:54.916Z,101692.41
2017-05-31T12:32:22.452Z,101693.14
2017-05-31T12:34:49.999Z,101686.61
2017-05-31T12:37:17.540Z,101687.34
2017-05-31T12:39:45.119Z,101681.98
2017-05-31T12:42:12.676Z,101680.76
2017-05-31T12:44:40.203Z,101685.92
2017-05-31T12:47:07.779Z,101681.34
2017-05-31T12:49:35.299Z,101681.07
2017-05-31T12:52:02.883Z,101677.14
2017-05-31T12:54:30.440Z,101682.12
2017-05-31T12:56:57.992Z,101682.06
2017-05-31T12:59:25.545Z,101677.98
2017-05-31T13:01:53.073Z,101678.95
2017-05-31T13:04:20.767Z,101674.61
2017-05-31T13:06:48.287Z,101668.88
2017-05-31T13:09:15.807Z,101673.89
2017-05-31T13:11:43.380Z,101664.52
2017-05-31T13:14:10.904Z,101663.73
2017-05-31T13:16:38.452Z,101664.16
2017-05-31T13:19:05.982Z,101663.95
2017-05-31T13:21:33.544Z,101661.13
2017-05-31T13:24:01.060Z,101666.53
2017-05-31T13:26:28.656Z,101653.84
2017-05-31T13:28:56.195Z,101647.01
2017-05-31T13:31:23.832Z,101646.98
2017-05-31T13:33:51.463Z,101647.95
2017-05-31T13:36:18.995Z,101649.71
2017-05-31T13:38:46.569Z,101643.52
2017-05-31T13:41:14.107Z,101639.26
2017-05-31T13:43:41.620Z,101639.81
2017-05-31T13:46:09.186Z,101644.41
2017-05-31T13:48:36.729Z,101638.45
2017-05-31T13:51:04.275Z,101635.20
2017-05-31T13:53:31.844Z,101637.17
2017-05-31T13:55:59.407Z,101631.57
2017-05-31T13:58:27.006Z,101630.95
2017-05-31T14:00:54.640Z,101628.39
2017-05-31T14:03:22.169Z,101625.95
2017-05-31T14:05:49.800Z,101621.50
2017-05-31T14:08:17.338Z,101627.06
2017-05-31T14:10:44.863Z,101633.72
2017-05-31T14:13:12.412Z,101635.64
2017-05-31T14:15:39.933Z,101625.66
2017-05-31T14:18:07.486Z,101612.02
2017-05-31T14:20:35.052Z,101610.66
2017-05-31T14:23:02.616Z,101602.05
2017-05-31T14:25:30.164Z,101603.25
2017-05-31T14:27:57.697Z,101597.64
2017-05-31T14:30:25.254Z,101600.48
2017-05-31T14:32:52.771Z,101597.76
2017-05-31T14:35:20.346Z,101599.48
2017-05-31T14:37:47.911Z,101596.95
2017-05-31T14:40:15.447Z,101595.30
2017-05-31T14:42:43.002Z,101593.08
2017-05-31T14:45:10.532Z,101584.00
2017-05-31T14:47:38.113Z,101584.67
2017-05-31T14:50:05.660Z,101592.13
2017-05-31T14:52:33.181Z,101581.17
2017-05-31T14:55:00.744Z,101579.67
2017-05-31T14:57:28.276Z,101577.98
2017-05-31T14:59:55.858Z,101584.84
2017-05-31T15:02:23.388Z,101584.40
2017-05-31T15:04:50.914Z,101592.45
2017-05-31T15:07:18.455Z,101583.77
2017-05-31T15:09:45.993Z,101584.23
2017-05-31T15:12:13.545Z,101579.63
2017-05-31T15:14:41.074Z,101575.73
2017-05-31T15:17:08.647Z,101569.94
2017-05-31T15:19:36.176Z,101567.69
2017-05-31T15:22:03.691Z,101569.20
2017-05-31T15:24:31.262Z,101560.97
2017-05-31T15:26:58.784Z,101562.92
2017-05-31T15:29:26.328Z,101558.16
2017-05-31T15:31:53.846Z,101562.56
2017-05-31T15:34:21.416Z,101562.78
2017-05-31T15:36:48.950Z,101551.61
2017-05-31T15:39:16.511Z,101555.97
2017-05-31T15:41:44.088Z,101555.73
2017-05-31T15:44:11.613Z,101558.02
2017-05-31T15:46:39.128Z,101553.64
2017-05-31T15:49:06.679Z,101558.95
2017-05-31T15:51:34.204Z,101556.58
2017-05-31T15:54:01.791Z,101550.71
2017-05-31T15:56:29.322Z,101553.10
2017-05-31T15:58:56.857Z,101552.10
2017-05-31T16:01:24.411Z,101548.70
2017-05-31T16:03:51.933Z,101550.72
2017-05-31T16:06:19.492Z,101541.83
2017-05-31T16:08:47.032Z,101540.98
2017-05-31T16:11:14.653Z,101537.69
2017-05-31T16:13:42.243Z,101538.13
2017-05-31T16:16:09.756Z,101544.70
2017-05-31T16:18:37.373Z,101542.44
2017-05-31T16:21:04.961Z,101541.86
2017-05-31T16:23:32.558Z,101542.58
2017-05-31T16:26:00.068Z,101543.48
2017-05-31T16:28:27.682Z,101538.23
2017-05-31T16:30:55.211Z,101537.57
2017-05-31T16:33:22.855Z,101537.86
2017-05-31T16:35:50.499Z,101547.20
2017-05-31T16:38:18.071Z,101547.81
2017-05-31T16:40:45.726Z,101547.02
2017-05-31T16:43:13.243Z,101540.23
2017-05-31T16:45:40.820Z,101534.37
2017-05-31T16:48:08.381Z,101548.27
2017-05-31T16:50:35.935Z,101545.28
2017-05-31T16:53:03.498Z,101543.84
2017-05-31T16:55:31.023Z,101536.52
2017-05-31T16:57:58.579Z,101543.62
2017-05-31T17:00:26.130Z,101542.36
2017-05-31T17:02:53.663Z,101539.36
2017-05-31T17:05:21.215Z,101535.77
2017-05-31T17:07:48.739Z,101532.11
2017-05-31T17:10:16.281Z,101538.16
2017-05-31T17:12:43.836Z,101542.80
2017-05-31T17:15:11.379Z,101543.39
2017-05-31T17:17:39.004Z,101543.77
2017-05-31T17:20:06.539Z,101544.02
2017-05-31T17:22:34.083Z,101541.66
2017-05-31T17:25:01.650Z,101540.89
2017-05-31T17:27:29.196Z,101541.56
2017-05-31T17:29:56.771Z,101541.42
2017-05-31T17:32:24.317Z,101541.84
2017-05-31T17:34:52.714Z,101544.98
2017-05-31T17:37:20.370Z,101544.45
2017-05-31T17:39:47.926Z,101542.30
2017-05-31T17:42:15.518Z,101548.90
2017-05-31T17:44:43.061Z,101548.62
2017-05-31T17:47:10.579Z,101549.20
2017-05-31T17:49:38.148Z,101551.39
2017-05-31T17:52:05.670Z,101545.24
2017-05-31T17:54:33.227Z,101558.48
2017-05-31T17:57:00.770Z,101555.87
2017-05-31T17:59:28.394Z,101553.40
2017-05-31T18:01:56.008Z,101549.25
2017-05-31T18:04:23.587Z,101558.69
2017-05-31T18:06:51.148Z,101557.19
2017-05-31T18:09:18.694Z,101559.27
2017-05-31T18:11:46.275Z,101554.64
2017-05-31T18:14:13.822Z,101551.75
2017-05-31T18:16:41.394Z,101560.55
2017-05-31T18:19:08.936Z,101561.91
2017-05-31T18:21:36.467Z,101559.73
2017-05-31T18:24:04.019Z,101559.29
2017-05-31T18:26:31.543Z,101557.31
2017-05-31T18:28:59.315Z,101568.77
2017-05-31T18:31:26.832Z,101559.31
2017-05-31T18:33:54.365Z,101561.70
2017-05-31T18:36:21.932Z,101565.22
2017-05-31T18:38:49.460Z,101572.69
2017-05-31T18:41:17.057Z,101568.07
2017-05-31T18:43:44.647Z,101573.31
2017-05-31T18:46:12.252Z,101575.60
2017-05-31T18:48:39.812Z,101570.55
2017-05-31T18:51:07.335Z,101571.39
2017-05-31T18:53:34.932Z,101577.22
2017-05-31T18:56:02.459Z,101577.05
2017-05-31T18:58:30.018Z,101583.66
2017-05-31T19:00:57.557Z,101577.19
2017-05-31T19:03:25.116Z,101579.03
2017-05-31T19:05:52.699Z,101577.72
2017-05-31T19:08:20.291Z,101576.53
2017-05-31T19:10:47.829Z,101584.66
2017-05-31T19:13:15.352Z,101584.01
2017-05-31T19:15:42.915Z,101587.15
2017-05-31T19:18:10.631Z,101590.28
2017-05-31T19:20:38.183Z,101588.12
2017-05-31T19:23:05.719Z,101587.22
2017-05-31T19:25:33.329Z,101587.36
2017-05-31T19:28:00.866Z,101589.41
2017-05-31T19:30:28.413Z,101597.27
2017-05-31T19:32:55.984Z,101598.34
2017-05-31T19:35:23.507Z,101600.17
2017-05-31T19:37:51.105Z,101601.08
2017-05-31T19:40:18.644Z,101599.30
2017-05-31T19:42:46.202Z,101592.90
2017-05-31T19:45:13.751Z,101599.27
2017-05-31T19:47:41.336Z,101604.74
2017-05-31T19:50:08.931Z,101612.06
2017-05-31T19:52:36.535Z,101617.28
2017-05-31T19:55:04.083Z,101609.31
2017-05-31T19:57:31.755Z,101617.22
2017-05-31T19:59:59.312Z,101621.92
2017-05-31T20:02:26.864Z,101625.70
2017-05-31T20:04:54.795Z,101627.41
2017-05-31T20:07:22.345Z,101628.19
2017-05-31T20:09:49.872Z,101629.25
2017-05-31T20:12:17.427Z,101633.75
2017-05-31T20:14:44.965Z,101642.19
2017-05-31T20:17:13.138Z,101638.23
2017-05-31T20:19:40.791Z,101636.36
2017-05-31T20:22:08.421Z,101642.88
2017-05-31T20:24:35.979Z,101640.39
2017-05-31T20:27:03.512Z,101643.59
2017-05-31T20:29:31.131Z,101638.22
2017-05-31T20:31:58.770Z,101644.08
2017-05-31T20:34:26.375Z,101634.89
2017-05-31T20:36:53.896Z,101636.32
2017-05-31T20:39:21.482Z,101642.60
2017-05-31T20:41:48.998Z,101633.98
2017-05-31T20:44:16.511Z,101643.72
2017-05-31T20:46:44.070Z,101642.22
2017-05-31T20:49:11.604Z,101647.61
2017-05-31T20:51:39.156Z,101652.84
2017-05-31T20:54:06.688Z,101651.88
2017-05-31T20:56:34.278Z,101652.55
2017-05-31T20:59:01.796Z,101661.86
2017-05-31T21:01:29.327Z,101661.13
2017-05-31T21:03:56.924Z,101658.23
2017-05-31T21:06:24.464Z,101667.73
2017-05-31T21:08:51.991Z,101671.98
2017-05-31T21:11:19.599Z,101671.19
2017-05-31T21:13:47.162Z,101671.13
2017-05-31T21:16:14.679Z,101669.59
2017-05-31T21:18:42.238Z,101674.94
2017-05-31T21:21:09.777Z,101667.80
2017-05-31T21:23:37.377Z,101674.34
2017-05-31T21:26:04.913Z,101683.23
2017-05-31T21:28:32.479Z,101680.63
2017-05-31T21:31:00.570Z,101679.78
2017-05-31T21:33:28.253Z,101676.86
2017-05-31T21:35:56.947Z,101674.28
2017-05-31T21:38:25.041Z,101679.94
2017-05-31T21:40:52.632Z,101683.11
2017-05-31T21:43:23.820Z,101687.13
2017-05-31T21:45:56.303Z,101686.80
2017-05-31T21:48:27.108Z,101684.08
2017-05-31T21:50:54.683Z,101700.97
2017-05-31T21:53:22.211Z,101689.27
2017-05-31T21:55:49.739Z,101684.56
2017-05-31T21:58:19.925Z,101684.30
2017-05-31T22:00:47.655Z,101684.92
2017-05-31T22:03:15.207Z,101682.77
2017-05-31T22:05:42.806Z,101689.67
2017-05-31T22:08:10.458Z,101689.88
2017-05-31T22:10:37.987Z,101694.68
2017-05-31T22:13:05.763Z,101690.76
2017-05-31T22:15:33.475Z,101690.39
2017-05-31T22:18:01.023Z,101698.55
2017-05-31T22:20:28.568Z,101698.63
2017-05-31T22:22:56.095Z,101692.91
2017-05-31T22:25:23.771Z,101691.60
2017-05-31T22:27:51.292Z,101700.11
2017-05-31T22:30:21.199Z,101692.50
2017-05-31T22:32:49.194Z,101701.80
2017-05-31T22:35:17.716Z,101703.08
2017-05-31T22:37:46.395Z,101704.67
2017-05-31T22:40:13.921Z,101705.52
2017-05-31T22:42:41.465Z,101700.18
2017-05-31T22:45:09.282Z,101701.80
2017-05-31T22:47:36.853Z,101700.25
2017-05-31T22:50:04.387Z,101702.53
2017-05-31T22:52:35.527Z,101705.92
2017-05-31T22:55:03.050Z,101701.06
2017-05-31T22:57:30.591Z,101697.17
2017-05-31T22:59:58.120Z,101698.58
2017-05-31T23:02:25.719Z,101691.66
2017-05-31T23:04:53.244Z,101692.38
2017-05-31T23:07:20.787Z,101698.39
2017-05-31T23:09:48.397Z,101692.68
2017-05-31T23:12:15.924Z,101690.38
2017-05-31T23:14:43.492Z,101691.13
2017-05-31T23:17:11.012Z,101694.19
2017-05-31T23:19:38.529Z,101692.47
2017-05-31T23:22:06.100Z,101699.03
2017-05-31T23:24:33.614Z,101694.12
2017-05-31T23:27:01.180Z,101690.89
2017-05-31T23:29:28.691Z,101693.44
2017-05-31T23:31:56.215Z,101696.59
2017-05-31T23:34:23.765Z,101696.36
2017-05-31T23:36:51.292Z,101698.51
2017-05-31T23:39:18.851Z,101693.30
2017-05-31T23:41:46.373Z,101693.86
2017-05-31T23:44:13.896Z,101698.55
2017-05-31T23:46:41.444Z,101698.79
2017-05-31T23:49:08.959Z,101705.97
2017-05-31T23:51:36.644Z,101704.64
2017-05-31T23:54:04.219Z,101702.24
2017-05-31T23:56:31.952Z,101705.96
2017-05-31T23:58:59.511Z,101698.70
